createdAt,value
2022-07-25T00:00:22.111Z,18.03
2022-07-25T00:03:10.876Z,18.02
2022-07-25T00:05:42.980Z,18.03
2022-07-25T00:08:15.046Z,18.03
2022-07-25T00:10:46.732Z,18.02
2022-07-25T00:13:18.759Z,18.01
2022-07-25T00:15:50.535Z,18.00
2022-07-25T00:18:22.765Z,17.97
2022-07-25T00:20:54.499Z,17.95
2022-07-25T00:23:26.931Z,17.92
2022-07-25T00:25:58.791Z,17.89
2022-07-25T00:28:32.279Z,17.88
2022-07-25T00:31:04.627Z,17.87
2022-07-25T00:33:37.041Z,17.86
2022-07-25T00:36:09.935Z,17.85
2022-07-25T00:38:41.977Z,17.83
2022-07-25T00:41:13.721Z,17.81
2022-07-25T00:43:47.370Z,17.77
2022-07-25T00:46:20.625Z,17.72
2022-07-25T00:48:53.542Z,17.67
2022-07-25T00:51:25.537Z,17.63
2022-07-25T00:53:58.807Z,17.59
2022-07-25T00:56:30.415Z,17.54
2022-07-25T00:59:02.311Z,17.50
2022-07-25T01:01:34.067Z,17.45
2022-07-25T01:04:08.084Z,17.43
2022-07-25T01:06:40.241Z,17.39
2022-07-25T01:09:12.549Z,17.37
2022-07-25T01:11:44.344Z,17.34
2022-07-25T01:14:16.677Z,17.30
2022-07-25T01:16:48.528Z,17.25
2022-07-25T01:19:21.426Z,17.22
2022-07-25T01:21:53.710Z,17.20
2022-07-25T01:24:25.895Z,17.17
2022-07-25T01:26:57.517Z,17.15
2022-07-25T01:29:29.589Z,17.10
2022-07-25T01:32:01.156Z,17.06
2022-07-25T01:34:33.118Z,17.03
2022-07-25T01:37:04.751Z,17.00
2022-07-25T01:39:36.743Z,16.96
2022-07-25T01:42:09.386Z,16.91
2022-07-25T01:44:41.900Z,16.87
2022-07-25T01:47:13.484Z,16.83
2022-07-25T01:49:46.170Z,16.78
2022-07-25T01:52:17.987Z,16.73
2022-07-25T01:54:50.121Z,16.69
2022-07-25T01:57:21.946Z,16.67
2022-07-25T01:59:57.318Z,16.64
2022-07-25T02:02:29.527Z,16.63
2022-07-25T02:05:02.033Z,16.61
2022-07-25T02:07:33.936Z,16.58
2022-07-25T02:10:07.232Z,16.56
2022-07-25T02:12:38.855Z,16.54
2022-07-25T02:15:12.715Z,16.53
2022-07-25T02:17:43.922Z,16.52
2022-07-25T02:20:16.478Z,16.50
2022-07-25T02:22:48.246Z,16.50
2022-07-25T02:25:20.497Z,16.49
2022-07-25T02:27:52.146Z,16.48
2022-07-25T02:30:23.997Z,16.48
2022-07-25T02:32:55.852Z,16.49
2022-07-25T02:35:28.127Z,16.47
2022-07-25T02:37:59.726Z,16.46
2022-07-25T02:40:32.024Z,16.44
2022-07-25T02:43:03.661Z,16.42
2022-07-25T02:45:35.602Z,16.40
2022-07-25T02:48:08.332Z,16.37
2022-07-25T02:50:41.085Z,16.35
2022-07-25T02:53:12.692Z,16.34
2022-07-25T02:55:44.750Z,16.33
2022-07-25T02:58:16.701Z,16.33
2022-07-25T03:00:49.489Z,16.32
2022-07-25T03:03:21.221Z,16.31
2022-07-25T03:05:53.132Z,16.30
2022-07-25T03:08:25.951Z,16.30
2022-07-25T03:11:01.247Z,16.30
2022-07-25T03:13:34.423Z,16.29
2022-07-25T03:16:06.749Z,16.28
2022-07-25T03:18:38.520Z,16.28
2022-07-25T03:21:10.966Z,16.27
2022-07-25T03:23:42.725Z,16.26
2022-07-25T03:26:14.770Z,16.26
2022-07-25T03:28:46.430Z,16.26
2022-07-25T03:31:18.780Z,16.26
2022-07-25T03:33:50.549Z,16.26
2022-07-25T03:36:22.540Z,16.27
2022-07-25T03:38:56.039Z,16.27
2022-07-25T03:41:28.093Z,16.28
2022-07-25T03:44:00.173Z,16.29
2022-07-25T03:46:32.090Z,16.31
2022-07-25T03:49:03.829Z,16.32
2022-07-25T03:51:35.864Z,16.34
2022-07-25T03:54:09.690Z,16.37
2022-07-25T03:56:44.245Z,16.41
2022-07-25T03:59:17.681Z,16.44
2022-07-25T04:01:51.134Z,16.49
2022-07-25T04:04:22.834Z,16.54
2022-07-25T04:06:54.784Z,16.59
2022-07-25T04:09:26.360Z,16.64
2022-07-25T04:12:04.594Z,16.71
2022-07-25T04:14:36.310Z,16.76
2022-07-25T04:17:08.243Z,16.85
2022-07-25T04:19:41.522Z,16.92
2022-07-25T04:22:13.649Z,17.01
2022-07-25T04:24:45.325Z,17.09
2022-07-25T04:27:17.096Z,17.18
2022-07-25T04:29:48.757Z,17.27
2022-07-25T04:32:23.531Z,17.37
2022-07-25T04:34:55.609Z,17.49
2022-07-25T04:37:27.803Z,17.60
2022-07-25T04:39:59.437Z,17.70
2022-07-25T04:42:31.640Z,17.82
2022-07-25T04:45:04.837Z,17.92
2022-07-25T04:47:37.154Z,18.01
2022-07-25T04:50:10.282Z,18.11
2022-07-25T04:52:42.562Z,18.22
2022-07-25T04:55:14.286Z,18.32
2022-07-25T04:57:47.534Z,18.43
2022-07-25T05:00:19.716Z,18.52
2022-07-25T05:02:58.784Z,18.62
2022-07-25T05:05:30.557Z,18.70
2022-07-25T05:08:02.754Z,18.80
2022-07-25T05:10:34.495Z,18.89
2022-07-25T05:13:06.660Z,18.96
2022-07-25T05:15:38.486Z,19.03
2022-07-25T05:18:10.587Z,19.09
2022-07-25T05:20:42.374Z,19.16
2022-07-25T05:23:14.346Z,19.22
2022-07-25T05:25:46.297Z,19.27
2022-07-25T05:28:18.198Z,19.32
2022-07-25T05:30:49.768Z,19.40
2022-07-25T05:33:21.749Z,19.48
2022-07-25T05:35:54.057Z,19.55
2022-07-25T05:38:26.073Z,19.59
2022-07-25T05:40:57.692Z,19.64
2022-07-25T05:43:29.709Z,19.68
2022-07-25T05:46:04.256Z,19.73
2022-07-25T05:48:36.186Z,19.78
2022-07-25T05:51:08.099Z,19.85
2022-07-25T05:53:40.112Z,19.92
2022-07-25T05:56:12.609Z,19.98
2022-07-25T05:58:44.434Z,20.02
2022-07-25T06:01:18.254Z,20.04
2022-07-25T06:03:48.472Z,20.05
2022-07-25T06:06:20.164Z,20.06
2022-07-25T06:08:52.168Z,20.07
2022-07-25T06:11:27.070Z,20.08
2022-07-25T06:14:03.021Z,20.09
2022-07-25T06:16:35.336Z,20.10
2022-07-25T06:19:07.259Z,20.13
2022-07-25T06:21:38.984Z,20.17
2022-07-25T06:24:11.335Z,20.22
2022-07-25T06:26:43.365Z,20.27
2022-07-25T06:29:15.209Z,20.31
2022-07-25T06:31:47.421Z,20.33
2022-07-25T06:34:19.551Z,20.37
2022-07-25T06:36:54.769Z,20.44
2022-07-25T06:39:28.283Z,20.52
2022-07-25T06:42:01.093Z,20.59
2022-07-25T06:44:35.616Z,20.63
2022-07-25T06:47:13.187Z,20.67
2022-07-25T06:49:47.779Z,20.73
2022-07-25T06:52:19.542Z,20.76
2022-07-25T06:54:51.553Z,20.80
2022-07-25T06:57:23.774Z,20.85
2022-07-25T06:59:55.861Z,20.92
2022-07-25T07:02:27.592Z,20.98
2022-07-25T07:05:01.205Z,21.03
2022-07-25T07:07:33.055Z,21.10
2022-07-25T07:10:06.511Z,21.18
2022-07-25T07:12:38.134Z,21.26
2022-07-25T07:15:12.686Z,21.29
2022-07-25T07:17:48.730Z,21.36
2022-07-25T07:20:21.550Z,21.45
2022-07-25T07:22:53.313Z,21.56
2022-07-25T07:25:28.370Z,21.67
2022-07-25T07:28:01.993Z,21.79
2022-07-25T07:31:05.916Z,21.91
2022-07-25T07:33:27.909Z,22.00
2022-07-25T07:36:02.052Z,22.06
2022-07-25T07:38:34.721Z,22.15
2022-07-25T07:41:08.224Z,22.23
2022-07-25T07:43:39.986Z,22.26
2022-07-25T07:46:12.313Z,22.29
2022-07-25T07:48:44.150Z,22.38
2022-07-25T07:51:16.199Z,22.44
2022-07-25T07:54:05.339Z,22.50
2022-07-25T07:56:44.605Z,22.55
2022-07-25T07:59:17.459Z,22.61
2022-07-25T08:01:49.507Z,22.68
2022-07-25T08:04:21.236Z,22.79
2022-07-25T08:06:53.236Z,22.94
2022-07-25T08:09:25.979Z,23.08
2022-07-25T08:11:57.907Z,23.16
2022-07-25T08:14:29.666Z,23.22
2022-07-25T08:17:02.091Z,23.26
2022-07-25T08:19:37.269Z,23.34
2022-07-25T08:22:12.974Z,23.42
2022-07-25T08:24:45.004Z,23.47
2022-07-25T08:27:17.572Z,23.50
2022-07-25T08:29:49.951Z,23.55
2022-07-25T08:32:22.081Z,23.64
2022-07-25T08:34:54.616Z,23.78
2022-07-25T08:37:26.861Z,23.89
2022-07-25T08:40:04.212Z,23.98
2022-07-25T08:42:37.693Z,24.07
2022-07-25T08:45:13.300Z,24.15
2022-07-25T08:47:45.452Z,24.24
2022-07-25T08:50:19.070Z,24.35
2022-07-25T08:53:04.569Z,24.48
2022-07-25T08:55:43.679Z,24.61
2022-07-25T08:58:17.435Z,24.75
2022-07-25T09:00:47.944Z,24.87
2022-07-25T09:03:19.811Z,24.98
2022-07-25T09:05:52.632Z,25.11
2022-07-25T09:08:24.620Z,25.22
2022-07-25T09:10:56.922Z,25.39
2022-07-25T09:13:30.801Z,25.51
2022-07-25T09:16:05.732Z,25.60
2022-07-25T09:18:40.391Z,25.70
2022-07-25T09:21:16.122Z,25.80
2022-07-25T09:23:48.266Z,25.92
2022-07-25T09:26:20.857Z,26.03
2022-07-25T09:28:55.757Z,26.15
2022-07-25T09:31:35.670Z,26.29
2022-07-25T09:34:10.222Z,26.40
2022-07-25T09:36:51.770Z,26.53
2022-07-25T09:39:33.664Z,26.66
2022-07-25T09:42:06.398Z,26.80
2022-07-25T09:44:38.294Z,26.88
2022-07-25T09:47:16.574Z,26.99
2022-07-25T09:49:49.824Z,27.09
2022-07-25T09:52:21.914Z,27.10
2022-07-25T09:54:55.586Z,27.12
2022-07-25T09:57:27.572Z,27.14
2022-07-25T10:00:02.154Z,27.15
2022-07-25T10:02:47.184Z,27.19
2022-07-25T10:05:30.046Z,27.29
2022-07-25T10:08:06.556Z,27.40
2022-07-25T10:10:42.796Z,27.51
2022-07-25T10:13:17.999Z,27.58
2022-07-25T10:15:52.045Z,27.64
2022-07-25T10:18:26.319Z,27.76
2022-07-25T10:21:24.394Z,27.98
2022-07-25T10:24:08.128Z,28.21
2022-07-25T10:26:41.535Z,28.35
2022-07-25T10:29:14.907Z,28.36
2022-07-25T10:31:51.489Z,28.40
2022-07-25T10:34:33.204Z,28.59
2022-07-25T10:37:13.599Z,28.84
2022-07-25T10:39:46.951Z,29.06
2022-07-25T10:42:22.349Z,29.25
2022-07-25T10:44:57.663Z,29.38
2022-07-25T10:47:30.955Z,29.53
2022-07-25T10:50:22.058Z,29.64
2022-07-25T10:53:00.909Z,29.77
2022-07-25T10:55:33.116Z,29.93
2022-07-25T10:58:22.170Z,30.09
2022-07-25T11:00:54.134Z,30.21
2022-07-25T11:03:27.288Z,30.28
2022-07-25T11:05:59.124Z,30.39
2022-07-25T11:08:37.541Z,30.44
2022-07-25T11:11:09.813Z,30.42
2022-07-25T11:13:43.761Z,30.57
2022-07-25T11:16:15.520Z,30.65
2022-07-25T11:18:50.244Z,30.75
2022-07-25T11:21:22.239Z,30.85
2022-07-25T11:23:55.085Z,30.94
2022-07-25T11:26:27.281Z,31.06
2022-07-25T11:28:59.314Z,31.25
2022-07-25T11:31:31.481Z,31.42
2022-07-25T11:34:03.760Z,31.31
2022-07-25T11:36:35.845Z,30.83
2022-07-25T11:39:09.088Z,30.52
2022-07-25T11:41:55.559Z,30.22
2022-07-25T11:44:35.617Z,30.14
2022-07-25T11:47:15.738Z,30.32
2022-07-25T11:49:50.566Z,30.69
2022-07-25T11:52:30.305Z,31.19
2022-07-25T11:55:04.867Z,31.53
2022-07-25T11:57:41.769Z,31.95
2022-07-25T12:00:21.207Z,32.33
2022-07-25T12:02:53.441Z,32.60
2022-07-25T12:05:34.840Z,32.81
2022-07-25T12:08:13.186Z,32.82
2022-07-25T12:10:47.883Z,32.79
2022-07-25T12:13:27.234Z,32.76
2022-07-25T12:16:01.328Z,32.83
2022-07-25T12:18:33.025Z,32.87
2022-07-25T12:21:05.308Z,32.87
2022-07-25T12:23:38.316Z,32.94
2022-07-25T12:26:13.730Z,32.77
2022-07-25T12:28:46.093Z,32.72
2022-07-25T12:31:18.399Z,32.76
2022-07-25T12:33:50.336Z,32.92
2022-07-25T12:36:22.496Z,33.18
2022-07-25T12:38:54.321Z,33.38
2022-07-25T12:41:26.556Z,33.36
2022-07-25T12:43:59.177Z,33.47
2022-07-25T12:46:31.243Z,33.53
2022-07-25T12:49:03.270Z,33.46
2022-07-25T12:51:35.419Z,33.43
2022-07-25T12:54:07.872Z,33.85
2022-07-25T12:56:40.129Z,34.18
2022-07-25T12:59:12.215Z,34.18
2022-07-25T13:01:44.219Z,34.23
2022-07-25T13:04:16.378Z,34.48
2022-07-25T13:06:48.364Z,34.60
2022-07-25T13:09:22.296Z,34.67
2022-07-25T13:11:55.089Z,34.63
2022-07-25T13:14:27.121Z,34.63
2022-07-25T13:16:59.144Z,34.43
2022-07-25T13:19:31.077Z,34.20
2022-07-25T13:22:02.907Z,34.25
2022-07-25T13:24:35.305Z,34.21
2022-07-25T13:27:07.654Z,34.27
2022-07-25T13:29:39.543Z,34.57
2022-07-25T13:32:11.522Z,34.92
2022-07-25T13:34:43.722Z,35.00
2022-07-25T13:37:15.917Z,35.09
2022-07-25T13:39:47.834Z,35.00
2022-07-25T13:42:20.143Z,34.79
2022-07-25T13:44:52.987Z,34.55
2022-07-25T13:47:29.984Z,34.42
2022-07-25T13:50:03.199Z,34.46
2022-07-25T13:52:38.327Z,34.43
2022-07-25T13:55:12.185Z,34.22
2022-07-25T13:57:45.520Z,34.24
2022-07-25T14:00:18.866Z,34.15
2022-07-25T14:02:52.377Z,34.18
2022-07-25T14:05:24.413Z,34.44
2022-07-25T14:07:56.551Z,34.67
2022-07-25T14:10:29.286Z,34.86
2022-07-25T14:12:59.982Z,34.82
2022-07-25T14:15:32.056Z,34.77
2022-07-25T14:18:04.079Z,34.72
2022-07-25T14:20:36.088Z,34.90
2022-07-25T14:23:08.114Z,34.98
2022-07-25T14:25:45.114Z,35.11
2022-07-25T14:28:18.333Z,35.27
2022-07-25T14:30:51.148Z,35.35
2022-07-25T14:33:24.368Z,35.28
2022-07-25T14:35:57.812Z,34.99
2022-07-25T14:38:31.214Z,35.03
2022-07-25T14:41:12.336Z,34.97
2022-07-25T14:43:45.348Z,34.74
2022-07-25T14:46:17.589Z,34.55
2022-07-25T14:48:50.008Z,34.59
2022-07-25T14:51:22.406Z,34.68
2022-07-25T14:53:54.931Z,34.59
2022-07-25T14:56:26.786Z,34.51
2022-07-25T14:58:58.980Z,34.31
2022-07-25T15:01:31.503Z,34.10
2022-07-25T15:04:03.905Z,33.92
2022-07-25T15:06:36.042Z,33.81
2022-07-25T15:09:07.647Z,33.87
2022-07-25T15:11:39.729Z,33.94
2022-07-25T15:14:11.699Z,33.89
2022-07-25T15:16:43.876Z,33.97
2022-07-25T15:19:17.036Z,33.96
2022-07-25T15:21:49.308Z,33.98
2022-07-25T15:24:23.576Z,33.92
2022-07-25T15:27:01.548Z,33.90
2022-07-25T15:29:33.192Z,33.82
2022-07-25T15:32:06.417Z,33.70
2022-07-25T15:34:38.421Z,33.70
2022-07-25T15:37:12.072Z,33.73
2022-07-25T15:39:45.220Z,33.61
2022-07-25T15:42:17.286Z,33.41
2022-07-25T15:44:59.587Z,33.23
2022-07-25T15:47:41.688Z,33.33
2022-07-25T15:50:13.742Z,33.46
2022-07-25T15:52:45.670Z,33.45
2022-07-25T15:55:17.606Z,33.23
2022-07-25T15:57:49.707Z,32.94
2022-07-25T16:00:29.142Z,32.85
2022-07-25T16:03:02.167Z,32.67
2022-07-25T16:05:34.505Z,32.44
2022-07-25T16:08:08.396Z,32.27
2022-07-25T16:10:41.019Z,32.24
2022-07-25T16:13:12.987Z,32.28
2022-07-25T16:15:44.836Z,32.29
2022-07-25T16:18:16.608Z,32.35
2022-07-25T16:20:48.287Z,32.40
2022-07-25T16:23:20.013Z,32.38
2022-07-25T16:25:52.734Z,32.32
2022-07-25T16:28:23.977Z,32.28
2022-07-25T16:30:56.285Z,32.26
2022-07-25T16:33:28.024Z,32.21
2022-07-25T16:36:02.317Z,32.04
2022-07-25T16:38:34.183Z,31.84
2022-07-25T16:41:10.097Z,31.69
2022-07-25T16:43:42.650Z,31.55
2022-07-25T16:46:16.733Z,31.44
2022-07-25T16:48:49.318Z,31.39
2022-07-25T16:51:22.090Z,31.31
2022-07-25T16:53:54.188Z,31.13
2022-07-25T16:56:26.319Z,30.97
2022-07-25T16:58:58.079Z,30.73
2022-07-25T17:01:30.070Z,30.43
2022-07-25T17:04:02.731Z,30.14
2022-07-25T17:06:35.199Z,29.86
2022-07-25T17:09:08.407Z,29.62
2022-07-25T17:11:41.108Z,29.42
2022-07-25T17:14:13.390Z,29.26
2022-07-25T17:16:45.536Z,29.09
2022-07-25T17:19:17.528Z,28.91
2022-07-25T17:21:49.696Z,28.72
2022-07-25T17:24:21.720Z,28.53
2022-07-25T17:26:53.714Z,28.35
2022-07-25T17:29:25.446Z,28.20
2022-07-25T17:31:57.267Z,28.07
2022-07-25T17:34:29.257Z,27.92
2022-07-25T17:37:03.194Z,27.79
2022-07-25T17:39:35.651Z,27.66
2022-07-25T17:42:08.351Z,27.53
2022-07-25T17:44:40.365Z,27.41
2022-07-25T17:47:14.463Z,27.31
2022-07-25T17:49:46.333Z,27.20
2022-07-25T17:52:18.321Z,27.12
2022-07-25T17:54:50.514Z,27.03
2022-07-25T17:57:22.522Z,26.93
2022-07-25T17:59:54.437Z,26.84
2022-07-25T18:02:26.705Z,26.75
2022-07-25T18:04:58.459Z,26.67
2022-07-25T18:07:31.047Z,26.60
2022-07-25T18:10:03.880Z,26.52
2022-07-25T18:12:36.043Z,26.45
2022-07-25T18:15:09.594Z,26.37
2022-07-25T18:17:44.267Z,26.31
2022-07-25T18:20:17.525Z,26.24
2022-07-25T18:22:48.085Z,26.19
2022-07-25T18:25:19.861Z,26.12
2022-07-25T18:27:51.966Z,26.06
2022-07-25T18:30:28.741Z,25.99
2022-07-25T18:33:01.347Z,25.92
2022-07-25T18:35:33.120Z,25.85
2022-07-25T18:38:05.136Z,25.78
2022-07-25T18:40:36.845Z,25.72
2022-07-25T18:43:09.220Z,25.66
2022-07-25T18:45:43.367Z,25.59
2022-07-25T18:48:17.442Z,25.54
2022-07-25T18:50:49.529Z,25.48
2022-07-25T18:53:21.954Z,25.42
2022-07-25T18:55:53.742Z,25.35
2022-07-25T18:58:25.624Z,25.29
2022-07-25T19:00:57.406Z,25.23
2022-07-25T19:03:29.247Z,25.18
2022-07-25T19:06:03.384Z,25.12
2022-07-25T19:08:35.627Z,25.05
2022-07-25T19:11:08.617Z,24.99
2022-07-25T19:13:50.369Z,24.93
2022-07-25T19:16:23.192Z,24.89
2022-07-25T19:18:55.454Z,24.85
2022-07-25T19:21:27.487Z,24.80
2022-07-25T19:23:59.522Z,24.74
2022-07-25T19:26:31.739Z,24.70
2022-07-25T19:29:03.736Z,24.66
2022-07-25T19:31:37.524Z,24.61
2022-07-25T19:34:10.620Z,24.57
2022-07-25T19:36:46.091Z,24.52
2022-07-25T19:39:18.867Z,24.47
2022-07-25T19:41:54.204Z,24.42
2022-07-25T19:44:26.419Z,24.37
2022-07-25T19:46:59.050Z,24.31
2022-07-25T19:49:30.835Z,24.24
2022-07-25T19:52:03.036Z,24.19
2022-07-25T19:54:35.218Z,24.13
2022-07-25T19:57:07.362Z,24.07
2022-07-25T19:59:39.611Z,24.02
2022-07-25T20:02:11.537Z,23.95
2022-07-25T20:04:43.671Z,23.89
2022-07-25T20:07:15.414Z,23.83
2022-07-25T20:09:47.338Z,23.77
2022-07-25T20:12:19.294Z,23.71
2022-07-25T20:14:51.120Z,23.65
2022-07-25T20:17:23.566Z,23.59
2022-07-25T20:19:55.551Z,23.53
2022-07-25T20:22:27.432Z,23.47
2022-07-25T20:24:59.397Z,23.41
2022-07-25T20:27:31.328Z,23.35
2022-07-25T20:30:04.371Z,23.30
2022-07-25T20:32:36.602Z,23.25
2022-07-25T20:35:09.806Z,23.20
2022-07-25T20:37:42.027Z,23.15
2022-07-25T20:40:16.287Z,23.09
2022-07-25T20:42:48.728Z,23.02
2022-07-25T20:45:20.866Z,22.96
2022-07-25T20:47:52.976Z,22.88
2022-07-25T20:50:25.046Z,22.82
2022-07-25T20:52:57.010Z,22.75
2022-07-25T20:55:31.506Z,22.69
2022-07-25T20:58:04.492Z,22.62
2022-07-25T21:00:36.791Z,22.55
2022-07-25T21:03:09.038Z,22.49
2022-07-25T21:05:43.373Z,22.43
2022-07-25T21:08:15.541Z,22.39
2022-07-25T21:10:47.586Z,22.35
2022-07-25T21:13:19.528Z,22.30
2022-07-25T21:15:52.180Z,22.27
2022-07-25T21:18:24.052Z,22.24
2022-07-25T21:20:57.516Z,22.19
2022-07-25T21:23:29.341Z,22.15
2022-07-25T21:26:02.122Z,22.09
2022-07-25T21:28:35.764Z,22.04
2022-07-25T21:31:08.122Z,22.00
2022-07-25T21:33:40.167Z,21.95
2022-07-25T21:36:13.422Z,21.92
2022-07-25T21:38:45.127Z,21.88
2022-07-25T21:41:18.531Z,21.84
2022-07-25T21:43:50.991Z,21.80
2022-07-25T21:46:23.192Z,21.76
2022-07-25T21:49:13.397Z,21.72
2022-07-25T21:51:46.084Z,21.68
2022-07-25T21:54:17.991Z,21.65
2022-07-25T21:56:50.123Z,21.61
2022-07-25T21:59:22.084Z,21.58
2022-07-25T22:01:54.033Z,21.54
2022-07-25T22:04:26.457Z,21.51
2022-07-25T22:06:58.683Z,21.47
2022-07-25T22:09:30.439Z,21.43
2022-07-25T22:12:02.400Z,21.40
2022-07-25T22:14:34.527Z,21.37
2022-07-25T22:17:06.920Z,21.33
2022-07-25T22:19:38.935Z,21.29
2022-07-25T22:22:10.790Z,21.26
2022-07-25T22:24:46.469Z,21.24
2022-07-25T22:27:18.976Z,21.21
2022-07-25T22:29:50.572Z,21.18
2022-07-25T22:32:22.638Z,21.14
2022-07-25T22:34:54.387Z,21.11
2022-07-25T22:37:26.489Z,21.08
2022-07-25T22:40:01.426Z,21.05
2022-07-25T22:42:33.709Z,21.01
2022-07-25T22:45:06.277Z,20.98
2022-07-25T22:47:38.144Z,20.94
2022-07-25T22:50:12.046Z,20.91
2022-07-25T22:52:44.083Z,20.87
2022-07-25T22:55:15.969Z,20.82
2022-07-25T22:57:49.868Z,20.78
2022-07-25T23:00:20.381Z,20.73
2022-07-25T23:02:52.398Z,20.68
2022-07-25T23:05:24.955Z,20.64
2022-07-25T23:07:56.924Z,20.58
2022-07-25T23:10:28.893Z,20.53
2022-07-25T23:13:00.703Z,20.47
2022-07-25T23:15:50.189Z,20.42
2022-07-25T23:18:23.223Z,20.36
2022-07-25T23:20:55.266Z,20.31
2022-07-25T23:23:26.994Z,20.25
2022-07-25T23:25:58.700Z,20.19
2022-07-25T23:28:30.576Z,20.13
2022-07-25T23:31:02.326Z,20.07
2022-07-25T23:33:34.198Z,20.02
2022-07-25T23:36:06.611Z,19.98
2022-07-25T23:38:39.431Z,19.93
2022-07-25T23:41:11.156Z,19.87
2022-07-25T23:43:56.595Z,19.82
2022-07-25T23:46:30.965Z,19.77
2022-07-25T23:49:03.266Z,19.73
2022-07-25T23:51:35.552Z,19.68
2022-07-25T23:54:07.957Z,19.63
2022-07-25T23:56:40.185Z,19.59
2022-07-25T23:59:12.078Z,19.55
